createdAt,value
2019-03-22T00:00:03.764Z,7.80
2019-03-22T00:02:33.616Z,7.80
2019-03-22T00:05:01.837Z,7.90
2019-03-22T00:07:31.344Z,7.90
2019-03-22T00:09:59.550Z,7.90
2019-03-22T00:12:27.866Z,7.90
2019-03-22T00:14:56.106Z,7.80
2019-03-22T00:17:24.297Z,7.70
2019-03-22T00:19:52.517Z,7.70
2019-03-22T00:22:20.797Z,7.60
2019-03-22T00:24:49.009Z,7.70
2019-03-22T00:27:17.436Z,7.80
2019-03-22T00:29:45.657Z,7.80
2019-03-22T00:32:13.940Z,7.80
2019-03-22T00:34:42.209Z,7.70
2019-03-22T00:37:10.417Z,7.70
2019-03-22T00:39:38.874Z,7.60
2019-03-22T00:42:07.083Z,7.30
2019-03-22T00:44:35.367Z,7.20
2019-03-22T00:47:03.716Z,7.20
2019-03-22T00:49:32.002Z,7.10
2019-03-22T00:52:00.226Z,7.00
2019-03-22T00:54:28.517Z,7.10
2019-03-22T00:56:56.623Z,7.10
2019-03-22T00:59:25.009Z,7.00
2019-03-22T01:01:53.216Z,7.00
2019-03-22T01:04:21.603Z,7.00
2019-03-22T01:06:50.013Z,7.00
2019-03-22T01:09:18.485Z,7.00
2019-03-22T01:11:46.693Z,7.00
2019-03-22T01:14:15.104Z,7.10
2019-03-22T01:16:43.318Z,7.00
2019-03-22T01:19:11.701Z,7.00
2019-03-22T01:21:39.914Z,6.90
2019-03-22T01:24:08.245Z,6.80
2019-03-22T01:26:36.548Z,6.80
2019-03-22T01:29:04.829Z,6.80
2019-03-22T01:31:33.240Z,6.80
2019-03-22T01:34:01.481Z,6.80
2019-03-22T01:36:29.989Z,6.80
2019-03-22T01:38:58.425Z,6.70
2019-03-22T01:41:26.685Z,6.70
2019-03-22T01:43:54.935Z,6.50
2019-03-22T01:46:23.125Z,6.40
2019-03-22T01:48:51.432Z,6.40
2019-03-22T01:51:19.729Z,6.30
2019-03-22T01:53:48.041Z,6.40
2019-03-22T01:56:16.402Z,6.40
2019-03-22T01:58:44.930Z,6.50
2019-03-22T02:01:13.250Z,6.50
2019-03-22T02:03:41.540Z,6.50
2019-03-22T02:06:09.940Z,6.50
2019-03-22T02:08:38.354Z,6.50
2019-03-22T02:11:06.526Z,6.50
2019-03-22T02:13:34.734Z,6.50
2019-03-22T02:16:03.021Z,6.50
2019-03-22T02:18:31.243Z,6.50
2019-03-22T02:20:59.526Z,6.40
2019-03-22T02:23:27.729Z,6.40
2019-03-22T02:25:56.025Z,6.30
2019-03-22T02:28:24.234Z,6.20
2019-03-22T02:30:52.400Z,6.20
2019-03-22T02:33:20.772Z,6.30
2019-03-22T02:35:49.165Z,6.20
2019-03-22T02:38:17.389Z,6.00
2019-03-22T02:40:45.712Z,5.90
2019-03-22T02:43:13.983Z,5.90
2019-03-22T02:45:42.289Z,5.90
2019-03-22T02:48:10.594Z,6.00
2019-03-22T02:50:38.824Z,6.00
2019-03-22T02:53:07.094Z,5.90
2019-03-22T02:55:35.238Z,5.90
2019-03-22T02:58:19.327Z,5.90
2019-03-22T03:00:33.574Z,5.90
2019-03-22T03:03:01.875Z,5.70
2019-03-22T03:05:30.278Z,5.70
2019-03-22T03:07:58.591Z,5.70
2019-03-22T03:10:26.811Z,5.50
2019-03-22T03:12:55.114Z,5.30
2019-03-22T03:15:23.336Z,5.30
2019-03-22T03:17:51.663Z,5.30
2019-03-22T03:20:19.979Z,5.50
2019-03-22T03:22:48.243Z,5.50
2019-03-22T03:25:16.637Z,5.50
2019-03-22T03:27:45.205Z,5.60
2019-03-22T03:30:14.951Z,5.60
2019-03-22T03:32:44.850Z,5.60
2019-03-22T03:35:13.288Z,5.50
2019-03-22T03:37:42.098Z,5.50
2019-03-22T03:40:11.207Z,5.50
2019-03-22T03:42:40.814Z,5.50
2019-03-22T03:45:19.508Z,5.50
2019-03-22T03:47:49.298Z,5.40
2019-03-22T03:50:17.578Z,5.30
2019-03-22T03:52:45.974Z,5.30
2019-03-22T03:55:14.276Z,5.30
2019-03-22T03:57:42.482Z,5.20
2019-03-22T04:00:10.989Z,5.10
2019-03-22T04:02:39.685Z,5.00
2019-03-22T04:05:07.968Z,4.90
2019-03-22T04:07:36.348Z,4.90
2019-03-22T04:10:05.225Z,5.00
2019-03-22T04:12:33.636Z,5.10
2019-03-22T04:15:02.051Z,5.10
2019-03-22T04:17:31.979Z,5.10
2019-03-22T04:20:00.445Z,5.00
2019-03-22T04:22:30.377Z,5.00
2019-03-22T04:24:58.589Z,5.00
2019-03-22T04:27:26.903Z,5.00
2019-03-22T04:29:55.221Z,5.00
2019-03-22T04:32:23.509Z,5.00
2019-03-22T04:34:51.777Z,5.00
2019-03-22T04:37:20.061Z,5.10
2019-03-22T04:39:48.339Z,5.00
2019-03-22T04:42:16.640Z,5.00
2019-03-22T04:44:44.909Z,4.90
2019-03-22T04:47:16.934Z,4.80
2019-03-22T04:49:49.189Z,4.80
2019-03-22T04:52:21.693Z,4.90
2019-03-22T04:54:54.592Z,4.80
2019-03-22T04:57:25.873Z,4.80
2019-03-22T04:59:55.382Z,4.80
2019-03-22T05:02:24.841Z,4.70
2019-03-22T05:04:54.805Z,4.70
2019-03-22T05:07:24.687Z,4.80
2019-03-22T05:09:54.246Z,4.70
2019-03-22T05:12:24.293Z,4.80
2019-03-22T05:14:54.599Z,4.80
2019-03-22T05:17:24.112Z,4.70
2019-03-22T05:19:56.581Z,4.70
2019-03-22T05:22:27.675Z,4.70
2019-03-22T05:24:59.401Z,4.70
2019-03-22T05:27:30.839Z,4.70
2019-03-22T05:30:02.177Z,4.60
2019-03-22T05:32:32.175Z,4.40
2019-03-22T05:35:00.416Z,4.40
2019-03-22T05:37:28.915Z,4.30
2019-03-22T05:39:57.640Z,4.30
2019-03-22T05:42:26.033Z,4.30
2019-03-22T05:44:54.325Z,4.30
2019-03-22T05:47:22.525Z,4.20
2019-03-22T05:49:50.861Z,4.20
2019-03-22T05:52:19.060Z,4.40
2019-03-22T05:54:47.449Z,4.30
2019-03-22T05:57:15.702Z,4.30
2019-03-22T05:59:44.032Z,4.40
2019-03-22T06:02:12.266Z,4.50
2019-03-22T06:04:40.639Z,4.50
2019-03-22T06:07:08.752Z,4.60
2019-03-22T06:09:37.064Z,4.70
2019-03-22T06:12:05.301Z,4.70
2019-03-22T06:14:33.582Z,4.70
2019-03-22T06:17:01.804Z,4.80
2019-03-22T06:19:30.175Z,4.80
2019-03-22T06:21:58.455Z,4.80
2019-03-22T06:24:26.741Z,4.80
2019-03-22T06:26:55.041Z,4.80
2019-03-22T06:29:23.315Z,4.80
2019-03-22T06:31:51.546Z,4.80
2019-03-22T06:34:19.841Z,4.90
2019-03-22T06:36:47.972Z,4.80
2019-03-22T06:39:16.331Z,4.80
2019-03-22T06:41:44.505Z,4.80
2019-03-22T06:44:12.825Z,4.90
2019-03-22T06:46:41.035Z,4.90
2019-03-22T06:49:09.225Z,5.00
2019-03-22T06:51:37.854Z,5.00
2019-03-22T06:54:06.218Z,5.00
2019-03-22T06:56:34.492Z,5.00
2019-03-22T06:59:02.798Z,5.10
2019-03-22T07:01:31.069Z,5.20
2019-03-22T07:03:59.292Z,5.20
2019-03-22T07:06:27.611Z,5.30
2019-03-22T07:08:55.853Z,5.30
2019-03-22T07:11:24.226Z,5.30
2019-03-22T07:13:52.609Z,5.40
2019-03-22T07:16:20.996Z,5.50
2019-03-22T07:18:49.235Z,5.50
2019-03-22T07:21:17.524Z,5.60
2019-03-22T07:23:45.841Z,5.70
2019-03-22T07:26:14.144Z,5.80
2019-03-22T07:28:42.358Z,5.80
2019-03-22T07:31:10.757Z,5.80
2019-03-22T07:33:39.087Z,5.90
2019-03-22T07:36:07.443Z,5.90
2019-03-22T07:38:35.924Z,6.00
2019-03-22T07:41:04.294Z,6.10
2019-03-22T07:43:32.791Z,6.20
2019-03-22T07:46:01.143Z,6.30
2019-03-22T07:48:29.527Z,6.50
2019-03-22T07:50:57.763Z,6.60
2019-03-22T07:53:26.033Z,6.70
2019-03-22T07:55:54.767Z,6.80
2019-03-22T07:58:23.459Z,6.80
2019-03-22T08:00:51.791Z,6.90
2019-03-22T08:03:20.258Z,7.00
2019-03-22T08:05:51.388Z,7.10
2019-03-22T08:08:18.923Z,7.20
2019-03-22T08:10:47.170Z,7.40
2019-03-22T08:13:15.555Z,7.50
2019-03-22T08:15:43.763Z,7.60
2019-03-22T08:18:12.160Z,7.70
2019-03-22T08:20:41.235Z,7.80
2019-03-22T08:23:22.522Z,8.00
2019-03-22T08:25:50.853Z,8.20
2019-03-22T08:28:19.182Z,8.30
2019-03-22T08:30:47.499Z,8.40
2019-03-22T08:33:15.777Z,8.60
2019-03-22T08:35:43.972Z,8.60
2019-03-22T08:38:12.202Z,8.60
2019-03-22T08:40:40.703Z,8.60
2019-03-22T08:43:08.983Z,8.70
2019-03-22T08:45:37.327Z,8.80
2019-03-22T08:48:05.566Z,9.00
2019-03-22T08:50:33.834Z,9.10
2019-03-22T08:53:02.044Z,9.30
2019-03-22T08:55:30.608Z,9.50
2019-03-22T08:57:58.886Z,9.60
2019-03-22T09:00:38.703Z,9.70
2019-03-22T09:02:57.109Z,9.80
2019-03-22T09:05:25.437Z,10.00
2019-03-22T09:07:53.757Z,10.30
2019-03-22T09:10:22.105Z,10.60
2019-03-22T09:12:50.315Z,11.00
2019-03-22T09:15:18.676Z,11.30
2019-03-22T09:17:47.014Z,11.80
2019-03-22T09:20:15.412Z,12.30
2019-03-22T09:22:43.686Z,12.90
2019-03-22T09:25:12.135Z,13.30
2019-03-22T09:27:40.460Z,13.70
2019-03-22T09:30:09.452Z,13.90
2019-03-22T09:32:39.451Z,14.10
2019-03-22T09:35:07.958Z,14.00
2019-03-22T09:37:36.352Z,14.20
2019-03-22T09:40:08.090Z,14.30
2019-03-22T09:42:35.522Z,14.40
2019-03-22T09:45:04.868Z,14.30
2019-03-22T09:47:34.843Z,14.10
2019-03-22T09:50:04.038Z,14.10
2019-03-22T09:52:33.980Z,14.10
2019-03-22T09:55:12.729Z,14.10
2019-03-22T09:57:32.934Z,14.20
2019-03-22T10:00:01.151Z,14.20
2019-03-22T10:02:31.043Z,14.00
2019-03-22T10:04:59.327Z,14.00
2019-03-22T10:07:27.731Z,14.00
2019-03-22T10:09:55.978Z,13.90
2019-03-22T10:12:24.212Z,14.00
2019-03-22T10:14:52.479Z,13.90
2019-03-22T10:17:20.936Z,13.90
2019-03-22T10:19:49.300Z,14.00
2019-03-22T10:22:17.647Z,14.00
2019-03-22T10:24:46.006Z,14.10
2019-03-22T10:27:14.200Z,14.00
2019-03-22T10:29:42.523Z,14.10
2019-03-22T10:32:10.852Z,14.20
2019-03-22T10:34:39.890Z,14.30
2019-03-22T10:37:08.405Z,14.30
2019-03-22T10:39:36.864Z,14.30
2019-03-22T10:42:05.166Z,14.40
2019-03-22T10:44:33.507Z,14.50
2019-03-22T10:47:01.950Z,14.60
2019-03-22T10:49:30.309Z,14.80
2019-03-22T10:51:58.625Z,14.90
2019-03-22T10:54:27.174Z,15.00
2019-03-22T10:56:55.422Z,15.30
2019-03-22T10:59:23.837Z,15.40
2019-03-22T11:02:02.707Z,15.70
2019-03-22T11:04:22.209Z,15.80
2019-03-22T11:06:50.457Z,15.80
2019-03-22T11:09:18.888Z,16.00
2019-03-22T11:11:47.149Z,16.20
2019-03-22T11:14:15.458Z,16.40
2019-03-22T11:16:43.982Z,16.60
2019-03-22T11:19:12.293Z,16.70
2019-03-22T11:21:40.641Z,16.80
2019-03-22T11:24:08.872Z,16.90
2019-03-22T11:26:37.137Z,17.10
2019-03-22T11:29:05.685Z,16.90
2019-03-22T11:31:39.791Z,17.00
2019-03-22T11:34:04.298Z,17.10
2019-03-22T11:36:32.704Z,17.30
2019-03-22T11:39:00.939Z,17.40
2019-03-22T11:41:30.845Z,17.50
2019-03-22T11:43:59.071Z,17.70
2019-03-22T11:46:27.505Z,17.80
2019-03-22T11:48:55.747Z,17.90
2019-03-22T11:51:24.158Z,18.10
2019-03-22T11:53:52.379Z,18.40
2019-03-22T11:56:20.585Z,18.60
2019-03-22T11:58:48.901Z,18.90
2019-03-22T12:01:21.265Z,18.90
2019-03-22T12:03:47.369Z,18.70
2019-03-22T12:06:15.685Z,18.50
2019-03-22T12:08:43.898Z,18.50
2019-03-22T12:11:12.213Z,18.60
2019-03-22T12:13:40.459Z,18.50
2019-03-22T12:16:08.777Z,18.80
2019-03-22T12:21:05.016Z,18.60
2019-03-22T12:23:33.234Z,18.70
2019-03-22T12:26:01.443Z,18.70
2019-03-22T12:28:29.904Z,18.80
2019-03-22T12:30:58.124Z,18.50
2019-03-22T12:33:26.543Z,18.50
2019-03-22T12:35:54.869Z,18.50
2019-03-22T12:38:23.142Z,18.30
2019-03-22T12:41:03.258Z,18.20
2019-03-22T12:43:31.660Z,18.50
2019-03-22T12:46:00.098Z,18.70
2019-03-22T12:48:29.078Z,18.90
2019-03-22T12:50:57.348Z,19.00
2019-03-22T12:53:25.710Z,19.10
2019-03-22T12:55:53.950Z,19.30
2019-03-22T12:58:22.378Z,19.30
2019-03-22T13:00:50.645Z,19.40
2019-03-22T13:03:19.042Z,19.70
2019-03-22T13:05:47.286Z,19.90
2019-03-22T13:08:15.719Z,20.20
2019-03-22T13:10:43.971Z,20.50
2019-03-22T13:13:12.493Z,20.60
2019-03-22T13:15:40.828Z,20.60
2019-03-22T13:18:10.394Z,20.60
2019-03-22T13:20:39.040Z,20.80
2019-03-22T13:25:35.476Z,21.20
2019-03-22T13:28:03.870Z,21.10
2019-03-22T13:30:35.953Z,21.20
2019-03-22T13:33:05.624Z,21.10
2019-03-22T13:35:34.057Z,21.10
2019-03-22T13:38:02.312Z,20.90
2019-03-22T13:40:31.030Z,20.90
2019-03-22T13:42:59.294Z,21.10
2019-03-22T13:45:27.635Z,21.20
2019-03-22T13:47:56.162Z,21.00
2019-03-22T13:50:24.734Z,21.00
2019-03-22T13:52:52.999Z,20.70
2019-03-22T13:55:21.388Z,20.70
2019-03-22T13:57:49.759Z,20.70
2019-03-22T14:00:18.553Z,20.90
2019-03-22T14:02:46.936Z,21.00
2019-03-22T14:05:15.358Z,21.10
2019-03-22T14:07:43.613Z,21.40
2019-03-22T14:12:44.555Z,21.50
2019-03-22T14:15:13.903Z,21.60
2019-03-22T14:17:42.202Z,21.60
2019-03-22T14:20:11.679Z,21.80
2019-03-22T14:25:08.262Z,22.00
2019-03-22T14:27:36.631Z,22.00
2019-03-22T14:30:05.795Z,22.00
2019-03-22T14:32:34.858Z,22.10
2019-03-22T14:35:03.466Z,22.10
2019-03-22T14:37:33.386Z,22.20
2019-03-22T14:40:01.765Z,22.10
2019-03-22T14:44:59.753Z,22.10
2019-03-22T14:47:28.735Z,22.10
2019-03-22T14:49:56.908Z,22.30
2019-03-22T14:52:25.226Z,22.30
2019-03-22T14:54:53.507Z,22.20
2019-03-22T14:57:21.843Z,22.10
2019-03-22T14:59:58.599Z,21.90
2019-03-22T15:02:20.272Z,21.90
2019-03-22T15:04:48.563Z,21.90
2019-03-22T15:07:19.942Z,22.00
2019-03-22T15:09:46.958Z,21.90
2019-03-22T15:12:15.531Z,21.90
2019-03-22T15:14:55.371Z,22.10
2019-03-22T15:17:43.758Z,22.10
2019-03-22T15:20:31.515Z,22.20
2019-03-22T15:23:20.965Z,22.10
2019-03-22T15:26:09.334Z,22.10
2019-03-22T15:28:57.250Z,22.10
2019-03-22T15:32:01.626Z,22.10
2019-03-22T15:34:56.973Z,22.10
2019-03-22T15:37:44.836Z,22.20
2019-03-22T15:40:14.806Z,22.00
2019-03-22T15:42:43.130Z,21.80
2019-03-22T15:45:12.055Z,21.70
2019-03-22T15:47:40.766Z,21.70
2019-03-22T15:50:10.670Z,21.60
2019-03-22T15:52:40.697Z,21.40
2019-03-22T15:55:09.871Z,21.20
2019-03-22T15:57:38.353Z,21.00
2019-03-22T16:00:09.197Z,20.80
2019-03-22T16:02:39.141Z,20.80
2019-03-22T16:05:07.865Z,20.70
2019-03-22T17:09:23.042Z,18.50
2019-03-22T17:11:51.387Z,18.40
2019-03-22T17:14:21.749Z,18.20
2019-03-22T17:16:49.941Z,18.00
2019-03-22T17:19:18.173Z,17.90
2019-03-22T17:21:46.510Z,17.70
2019-03-22T17:24:14.829Z,17.60
2019-03-22T17:26:43.259Z,17.60
2019-03-22T17:29:11.525Z,17.60
2019-03-22T17:31:40.874Z,17.80
2019-03-22T17:34:14.302Z,17.80
2019-03-22T17:36:41.769Z,17.90
2019-03-22T17:39:11.506Z,17.80
2019-03-22T17:41:40.658Z,17.70
2019-03-22T17:44:09.210Z,17.70
2019-03-22T17:46:37.806Z,17.60
2019-03-22T18:31:05.574Z,16.60
2019-03-22T18:33:33.881Z,16.50
2019-03-22T18:36:02.189Z,16.30
2019-03-22T18:38:30.447Z,16.20
2019-03-22T18:40:58.979Z,16.10
2019-03-22T18:43:27.303Z,16.10
2019-03-22T18:45:57.742Z,16.00
2019-03-22T18:48:26.588Z,15.90
2019-03-22T18:50:57.104Z,15.90
2019-03-22T18:53:25.329Z,15.80
2019-03-22T18:55:53.665Z,15.80
2019-03-22T18:58:23.742Z,15.80
2019-03-22T19:00:52.188Z,15.80
2019-03-22T19:03:20.497Z,15.80
2019-03-22T19:05:49.075Z,15.80
2019-03-22T19:08:18.580Z,15.70
2019-03-22T19:10:47.000Z,15.70
2019-03-22T19:13:15.310Z,15.60
2019-03-22T19:15:43.623Z,15.60
2019-03-22T19:18:11.913Z,15.50
2019-03-22T19:20:40.190Z,15.30
2019-03-22T19:23:08.556Z,15.20
2019-03-22T19:25:37.018Z,15.10
2019-03-22T19:28:05.353Z,15.00
2019-03-22T19:30:33.739Z,15.00
2019-03-22T19:33:02.179Z,14.90
2019-03-22T19:35:30.455Z,14.90
2019-03-22T19:37:58.863Z,14.90
2019-03-22T19:40:27.062Z,14.80
2019-03-22T19:42:55.629Z,14.70
2019-03-22T19:45:23.910Z,14.70
2019-03-22T19:47:52.348Z,14.60
2019-03-22T19:50:20.713Z,14.50
2019-03-22T19:52:49.052Z,14.50
2019-03-22T19:55:17.334Z,14.50
2019-03-22T19:57:45.679Z,14.60
2019-03-22T20:00:14.204Z,14.50
2019-03-22T20:02:44.166Z,14.40
2019-03-22T20:05:20.086Z,14.40
2019-03-22T20:07:50.027Z,14.40
2019-03-22T20:10:18.346Z,14.40
2019-03-22T20:12:46.813Z,14.40
2019-03-22T20:15:15.126Z,14.30
2019-03-22T20:17:43.439Z,14.20
2019-03-22T20:20:11.964Z,14.20
2019-03-22T20:22:40.861Z,14.10
2019-03-22T20:25:10.134Z,13.90
2019-03-22T20:27:38.592Z,13.90
2019-03-22T20:30:07.068Z,13.90
2019-03-22T20:32:36.973Z,13.80
2019-03-22T20:35:15.637Z,13.80
2019-03-22T20:37:36.686Z,13.70
2019-03-22T20:40:05.274Z,13.60
2019-03-22T20:42:35.338Z,13.50
2019-03-22T20:45:04.714Z,13.50
2019-03-22T20:47:33.400Z,13.40
2019-03-22T20:50:01.704Z,13.30
2019-03-22T20:52:31.584Z,13.20
2019-03-22T20:55:01.733Z,13.10
2019-03-22T20:57:31.620Z,13.00
2019-03-22T21:00:00.158Z,12.90
2019-03-22T21:02:30.142Z,12.80
2019-03-22T21:04:58.592Z,12.70
2019-03-22T21:07:26.829Z,12.60
2019-03-22T21:09:55.145Z,12.60
2019-03-22T21:12:23.531Z,12.40
2019-03-22T21:14:51.912Z,12.30
2019-03-22T21:17:20.313Z,12.00
2019-03-22T21:19:48.563Z,11.80
2019-03-22T21:22:16.970Z,11.80
2019-03-22T21:24:45.226Z,11.80
2019-03-22T21:27:15.810Z,11.70
2019-03-22T21:29:44.599Z,11.70
2019-03-22T21:32:13.330Z,11.60
2019-03-22T21:34:44.015Z,11.60
2019-03-22T21:37:12.001Z,11.60
2019-03-22T21:39:40.345Z,11.40
2019-03-22T21:42:08.758Z,11.30
2019-03-22T21:44:37.130Z,11.20
2019-03-22T21:47:05.540Z,11.10
2019-03-22T21:49:33.983Z,11.00
2019-03-22T21:52:02.333Z,11.10
2019-03-22T21:54:30.739Z,11.20
2019-03-22T21:56:59.085Z,11.20
2019-03-22T21:59:27.538Z,11.30
2019-03-22T22:01:55.854Z,11.20
2019-03-22T22:04:24.099Z,11.00
2019-03-22T22:06:52.536Z,11.00
2019-03-22T22:09:20.950Z,11.10
2019-03-22T22:11:49.179Z,11.10
2019-03-22T22:14:17.490Z,11.10
2019-03-22T22:16:45.766Z,11.00
2019-03-22T22:19:14.086Z,11.00
2019-03-22T22:21:42.424Z,11.00
2019-03-22T22:24:10.760Z,11.00
2019-03-22T22:26:39.000Z,11.10
2019-03-22T22:29:07.308Z,11.10
2019-03-22T22:31:35.555Z,11.10
2019-03-22T22:34:03.868Z,11.00
2019-03-22T22:36:32.100Z,11.00
2019-03-22T22:39:00.823Z,11.00
2019-03-22T22:41:29.167Z,11.00
2019-03-22T22:43:57.567Z,10.90
2019-03-22T22:46:25.797Z,10.90
2019-03-22T22:48:54.147Z,10.80
2019-03-22T22:51:22.398Z,10.80
2019-03-22T22:53:50.622Z,10.70
2019-03-22T22:56:18.880Z,10.70
2019-03-22T22:58:47.244Z,10.60
2019-03-22T23:01:15.488Z,10.60
2019-03-22T23:03:43.815Z,10.60
2019-03-22T23:06:12.139Z,10.60
2019-03-22T23:08:40.373Z,10.50
2019-03-22T23:11:08.702Z,10.50
2019-03-22T23:13:37.037Z,10.50
2019-03-22T23:16:05.395Z,10.50
2019-03-22T23:18:33.776Z,10.40
2019-03-22T23:21:02.089Z,10.40
2019-03-22T23:23:30.427Z,10.30
2019-03-22T23:25:58.794Z,10.30
2019-03-22T23:28:27.078Z,10.30
2019-03-22T23:30:55.389Z,10.30
2019-03-22T23:33:23.620Z,10.20
2019-03-22T23:35:51.948Z,10.20
2019-03-22T23:38:20.268Z,10.10
2019-03-22T23:40:48.629Z,10.10
2019-03-22T23:43:16.783Z,10.10
2019-03-22T23:45:45.076Z,10.10
2019-03-22T23:48:13.395Z,10.00
2019-03-22T23:50:41.619Z,9.90
2019-03-22T23:53:09.825Z,9.90
2019-03-22T23:55:38.165Z,9.90
2019-03-22T23:58:06.490Z,9.80
